KADM/ADM METAR and TAF weather

Enter ICAO airport designator
Station Type Date Time Source
KADM METAR 2020/03/29 20:55 UTC NOAA

KADM 292055Z 19004KT 10SM CLR 23/02 A3014


Station Type Date Time Source
KADM Decoded METAR 2020/03/29 20:55 UTC NOAA

Ardmore, Ardmore Municipal Airport, OK, United States (KADM) 34-18-11N 097-01-10W
Mar 29, 2020 - 04:55 PM EDT / 2020.03.29 2055 UTC
Wind: from the S (190 degrees) at 5 MPH (4 KT):0
Visibility: 10 mile(s):0
Sky conditions: clear
Temperature: 73 F (23 C)
Dew Point: 35 F (2 C)
Relative Humidity: 25%
Pressure (altimeter): 30.14 in. Hg (1020 hPa)
ob: KADM 292055Z 19004KT 10SM CLR 23/02 A3014
cycle: 21

Station Type Date Time Source
KADM TAF UTC NOAA

Error!

Example: see airport list